Time;durP1;ratioP1;P1;durP2;ratioP2;P2;SDS_P1;SDS_P2;PMS_P1;PMS_P2;Temp;Humidity;BMP_temperature;BMP_pressure;BME280_temperature;BME280_humidity;BME280_pressure;Samples;Min_cycle;Max_cycle;Signal;HPM_P1;HPM_P2
2023/07/03 00:00:50;;;;;;;21.13;13.77;;;16.10;82.60;;;;;;5051548;28;20961;-70
2023/07/03 00:03:18;;;;;;;19.87;14.03;;;16.10;83.70;;;;;;5050453;28;20444;-69
2023/07/03 00:05:47;;;;;;;18.77;13.27;;;16.10;85.20;;;;;;5051948;28;20461;-70
2023/07/03 00:08:17;;;;;;;21.63;13.57;;;16.10;88.20;;;;;;5051287;28;20436;-70
2023/07/03 00:10:45;;;;;;;18.97;13.37;;;16.20;89.10;;;;;;5051612;28;20870;-70
2023/07/03 00:13:13;;;;;;;17.90;13.03;;;16.30;89.00;;;;;;5050187;28;20487;-69
2023/07/03 00:15:43;;;;;;;17.43;13.17;;;16.50;85.60;;;;;;5051604;28;20443;-69
2023/07/03 00:18:11;;;;;;;20.40;13.37;;;16.60;85.10;;;;;;5050945;28;20541;-69
2023/07/03 00:20:39;;;;;;;22.03;13.90;;;16.80;83.90;;;;;;5051271;28;20511;-69
2023/07/03 00:23:07;;;;;;;17.80;12.37;;;16.80;83.10;;;;;;5050004;28;20443;-69
2023/07/03 00:25:37;;;;;;;16.80;12.27;;;16.90;81.80;;;;;;5051060;28;20474;-69
2023/07/03 00:28:05;;;;;;;17.73;13.47;;;16.90;81.00;;;;;;5051172;28;20517;-69
2023/07/03 00:30:34;;;;;;;22.43;13.67;;;17.00;80.90;;;;;;5050995;28;20841;-69
2023/07/03 00:33:03;;;;;;;16.50;13.37;;;17.10;79.90;;;;;;5050008;28;20443;-69
2023/07/03 00:35:32;;;;;;;20.17;14.77;;;17.10;81.00;;;;;;5050479;28;20463;-69
2023/07/03 00:38:00;;;;;;;19.40;12.77;;;17.10;79.60;;;;;;5050796;28;20545;-69
2023/07/03 00:40:28;;;;;;;17.87;12.57;;;17.30;79.50;;;;;;5050701;28;20444;-70
2023/07/03 00:42:56;;;;;;;15.47;11.53;;;17.30;80.60;;;;;;5049445;28;20927;-70
2023/07/03 00:45:24;;;;;;;19.67;12.20;;;17.30;80.90;;;;;;5050514;28;20996;-70
2023/07/03 00:47:53;;;;;;;17.00;12.13;;;17.40;79.10;;;;;;5049957;28;20447;-70
2023/07/03 00:50:23;;;;;;;21.13;12.23;;;17.40;77.40;;;;;;5050845;28;20476;-69
2023/07/03 00:52:55;;;;;;;19.67;12.23;;;17.50;77.10;;;;;;5048958;28;20467;-69
2023/07/03 00:55:23;;;;;;;21.90;12.97;;;17.50;75.90;;;;;;5050709;28;20521;-69
2023/07/03 00:57:52;;;;;;;16.73;12.63;;;17.60;76.90;;;;;;5050318;28;20479;-69
2023/07/03 01:00:25;;;;;;;18.40;13.07;;;17.60;76.60;;;;;;5050495;28;20448;-69
2023/07/03 01:03:00;;;;;;;16.80;11.90;;;17.60;75.60;;;;;;5049100;28;20477;-69
2023/07/03 01:05:32;;;;;;;19.27;12.73;;;17.70;75.50;;;;;;5049996;28;20466;-69
2023/07/03 01:08:01;;;;;;;16.80;11.47;;;17.80;75.70;;;;;;5050255;28;20443;-69
2023/07/03 01:10:31;;;;;;;18.30;12.13;;;17.70;76.50;;;;;;5050006;28;20935;-69
2023/07/03 01:13:02;;;;;;;19.00;12.13;;;17.70;75.50;;;;;;5048831;28;20450;-69
2023/07/03 01:15:34;;;;;;;18.07;11.07;;;17.80;75.90;;;;;;5049751;28;20481;-70
2023/07/03 01:18:04;;;;;;;17.67;12.83;;;17.90;74.60;;;;;;5049974;28;20508;-70
2023/07/03 01:20:37;;;;;;;18.63;12.07;;;17.90;74.80;;;;;;5049682;28;20443;-70
2023/07/03 01:23:13;;;;;;;20.53;13.70;;;18.00;74.10;;;;;;5048944;28;20452;-69
2023/07/03 01:25:44;;;;;;;17.97;12.90;;;18.00;74.30;;;;;;5049671;28;20863;-69
2023/07/03 01:28:15;;;;;;;23.30;13.53;;;18.00;74.30;;;;;;5049816;28;20446;-69
2023/07/03 01:30:44;;;;;;;19.10;11.17;;;18.00;74.30;;;;;;5049757;28;20440;-69
2023/07/03 01:33:17;;;;;;;24.40;12.77;;;18.00;74.10;;;;;;5048189;28;20451;-70
2023/07/03 01:35:47;;;;;;;16.40;11.33;;;18.00;73.70;;;;;;5049744;28;20439;-70
2023/07/03 01:38:16;;;;;;;19.27;12.00;;;18.00;73.60;;;;;;5049366;28;20478;-70
2023/07/03 01:40:45;;;;;;;19.97;13.57;;;18.00;73.70;;;;;;5049625;28;20495;-70
2023/07/03 01:43:15;;;;;;;16.37;11.73;;;18.00;74.50;;;;;;5048242;28;20440;-70
2023/07/03 01:45:44;;;;;;;15.53;12.10;;;18.10;74.30;;;;;;5049768;28;20561;-70
2023/07/03 01:48:12;;;;;;;17.70;12.40;;;18.10;73.10;;;;;;5049522;28;20874;-70
2023/07/03 01:50:42;;;;;;;17.23;12.33;;;18.00;73.30;;;;;;5049426;28;20444;-70
2023/07/03 01:53:16;;;;;;;20.63;12.43;;;18.00;73.20;;;;;;5048322;28;20962;-69
2023/07/03 01:55:50;;;;;;;15.23;11.23;;;18.10;72.60;;;;;;5049317;28;20567;-70
2023/07/03 01:58:28;;;;;;;16.23;11.10;;;18.10;72.70;;;;;;5049799;28;20569;-69
2023/07/03 02:01:00;;;;;;;17.90;12.90;;;18.00;72.80;;;;;;5049114;28;20914;-70
2023/07/03 02:03:32;;;;;;;16.10;11.50;;;18.00;73.10;;;;;;5048041;28;20471;-70
2023/07/03 02:06:12;;;;;;;18.00;12.93;;;17.90;74.40;;;;;;5049347;28;20448;-70
2023/07/03 02:08:40;;;;;;;16.20;11.33;;;18.00;73.80;;;;;;5049654;28;20542;-70
2023/07/03 02:11:15;;;;;;;16.13;12.00;;;18.00;73.10;;;;;;5049659;28;20448;-70
2023/07/03 02:13:43;;;;;;;18.10;11.23;;;17.90;74.40;;;;;;5048358;28;20467;-70
2023/07/03 02:16:11;;;;;;;17.73;12.30;;;18.00;73.60;;;;;;5049355;28;20444;-70
2023/07/03 02:18:39;;;;;;;19.73;12.83;;;18.00;73.00;;;;;;5049362;28;20482;-70
2023/07/03 02:21:07;;;;;;;16.43;12.23;;;18.10;73.40;;;;;;5049315;28;20467;-69
2023/07/03 02:23:35;;;;;;;17.93;10.97;;;18.10;73.00;;;;;;5047929;28;20498;-69
2023/07/03 02:26:04;;;;;;;16.93;12.30;;;18.20;73.10;;;;;;5049408;28;20476;-70
2023/07/03 02:28:34;;;;;;;25.23;13.30;;;18.20;72.70;;;;;;5048909;28;20440;-69
2023/07/03 02:31:02;;;;;;;17.60;13.30;;;18.20;73.20;;;;;;5049315;28;20514;-69
2023/07/03 02:33:31;;;;;;;18.40;11.97;;;18.20;73.00;;;;;;5048113;28;20466;-70
2023/07/03 02:36:01;;;;;;;20.27;11.73;;;18.20;73.10;;;;;;5049330;28;20497;-70
2023/07/03 02:38:29;;;;;;;20.93;11.97;;;18.20;72.80;;;;;;5048982;28;20981;-69
2023/07/03 02:40:57;;;;;;;19.53;12.30;;;18.10;73.20;;;;;;5049204;28;20451;-69
2023/07/03 02:43:25;;;;;;;19.03;12.20;;;18.20;73.00;;;;;;5050694;28;20535;-69
2023/07/03 02:45:55;;;;;;;15.37;11.50;;;18.10;73.60;;;;;;5052890;28;20534;-69
2023/07/03 02:48:22;;;;;;;20.97;12.77;;;18.20;73.30;;;;;;5052738;28;20511;-69
2023/07/03 02:50:52;;;;;;;19.17;11.20;;;18.10;72.90;;;;;;5048816;28;20528;-69
2023/07/03 02:53:20;;;;;;;17.83;11.60;;;18.10;73.20;;;;;;5031532;28;20970;-68
2023/07/03 02:55:49;;;;;;;17.50;11.13;;;18.00;73.90;;;;;;5032247;28;21247;-69
2023/07/03 02:58:18;;;;;;;17.67;12.37;;;18.10;72.70;;;;;;5032623;28;20511;-70
2023/07/03 03:00:46;;;;;;;16.43;11.70;;;18.00;73.00;;;;;;5032422;28;20480;-69
2023/07/03 03:03:16;;;;;;;18.47;11.80;;;18.10;73.30;;;;;;5031511;28;20477;-70
2023/07/03 03:05:44;;;;;;;20.03;12.23;;;18.10;72.80;;;;;;5032470;28;20436;-70
2023/07/03 03:08:12;;;;;;;21.43;12.30;;;18.10;73.10;;;;;;5032391;28;20479;-70
2023/07/03 03:10:40;;;;;;;19.40;11.40;;;18.00;72.90;;;;;;5032415;28;20437;-69
2023/07/03 03:13:08;;;;;;;16.50;12.20;;;18.10;73.00;;;;;;5030964;28;20453;-69
2023/07/03 03:15:37;;;;;;;17.90;12.20;;;18.10;72.90;;;;;;5032301;28;20473;-70
2023/07/03 03:18:05;;;;;;;17.33;11.10;;;18.20;72.70;;;;;;5032005;28;20920;-69
2023/07/03 03:20:34;;;;;;;17.40;11.50;;;18.20;72.80;;;;;;5032275;28;20444;-70
2023/07/03 03:23:02;;;;;;;18.00;12.50;;;18.20;73.10;;;;;;5030625;28;20506;-69
2023/07/03 03:25:30;;;;;;;20.73;12.03;;;18.20;72.90;;;;;;5032062;28;20559;-69
2023/07/03 03:27:59;;;;;;;19.03;12.70;;;18.20;72.80;;;;;;5032145;28;21143;-69
2023/07/03 03:30:27;;;;;;;18.17;11.90;;;18.20;73.90;;;;;;5031957;28;20946;-69
2023/07/03 03:32:55;;;;;;;17.20;11.77;;;18.20;73.60;;;;;;5031207;28;20966;-70
2023/07/03 03:35:23;;;;;;;18.10;11.77;;;18.30;72.80;;;;;;5031932;28;20473;-70
2023/07/03 03:37:52;;;;;;;16.80;12.00;;;18.30;72.90;;;;;;5032257;28;20939;-70
2023/07/03 03:40:20;;;;;;;17.63;11.77;;;18.30;72.50;;;;;;5032017;28;21005;-70
2023/07/03 03:42:48;;;;;;;17.83;11.27;;;18.30;72.40;;;;;;5031006;28;20510;-70
2023/07/03 03:45:16;;;;;;;14.67;11.60;;;18.30;73.30;;;;;;5032141;28;20457;-70
2023/07/03 03:47:44;;;;;;;17.37;11.60;;;18.30;73.70;;;;;;5031991;28;20498;-70
2023/07/03 03:50:12;;;;;;;21.37;13.03;;;18.30;73.00;;;;;;5031994;28;20455;-69
2023/07/03 03:52:40;;;;;;;17.87;12.17;;;18.30;72.60;;;;;;5030594;28;20441;-69
2023/07/03 03:55:11;;;;;;;16.37;11.50;;;18.30;72.30;;;;;;5032455;28;20469;-69
2023/07/03 03:57:38;;;;;;;14.73;10.80;;;18.30;72.50;;;;;;5032162;28;20539;-69
2023/07/03 04:00:12;;;;;;;21.80;12.77;;;18.40;72.10;;;;;;5032321;28;20994;-69
2023/07/03 04:02:41;;;;;;;15.77;11.37;;;18.40;72.40;;;;;;5030861;28;20448;-69
2023/07/03 04:05:09;;;;;;;22.13;11.23;;;18.40;73.20;;;;;;5032280;28;20837;-70
2023/07/03 04:07:37;;;;;;;17.63;10.93;;;18.40;73.20;;;;;;5032198;28;20437;-70
2023/07/03 04:10:06;;;;;;;20.53;11.87;;;18.50;73.70;;;;;;5031662;28;21016;-69
2023/07/03 04:12:35;;;;;;;16.20;11.43;;;18.50;72.80;;;;;;5030770;28;20441;-70
2023/07/03 04:15:04;;;;;;;18.03;11.40;;;18.60;72.10;;;;;;5031328;28;20990;-69
2023/07/03 04:17:32;;;;;;;16.13;11.03;;;18.60;71.50;;;;;;5031914;28;20475;-69
2023/07/03 04:20:00;;;;;;;17.70;11.47;;;18.70;70.90;;;;;;5031123;28;20512;-69
2023/07/03 04:22:28;;;;;;;17.03;11.20;;;18.70;71.20;;;;;;5030602;28;20532;-70
2023/07/03 04:24:56;;;;;;;21.30;11.73;;;18.70;71.00;;;;;;5031072;28;20467;-70
2023/07/03 04:27:24;;;;;;;15.90;10.90;;;18.70;70.80;;;;;;5031413;28;20487;-70
2023/07/03 04:29:54;;;;;;;14.83;10.30;;;18.70;70.90;;;;;;5031913;28;20919;-70
2023/07/03 04:32:22;;;;;;;16.30;10.10;;;18.70;71.10;;;;;;5030530;28;20994;-71
2023/07/03 04:34:50;;;;;;;14.03;10.33;;;18.70;71.50;;;;;;5031695;28;20540;-70
2023/07/03 04:37:18;;;;;;;18.00;10.97;;;18.70;70.80;;;;;;5031032;28;20451;-67
2023/07/03 04:39:46;;;;;;;16.70;11.50;;;18.70;71.30;;;;;;5027331;28;20473;-69
2023/07/03 04:42:14;;;;;;;14.30;11.10;;;18.80;71.20;;;;;;5030422;28;20532;-69
2023/07/03 04:44:43;;;;;;;15.53;10.63;;;18.80;71.50;;;;;;5030545;28;20527;-68
2023/07/03 04:47:15;;;;;;;17.60;10.80;;;18.90;70.80;;;;;;5031016;28;20507;-68
2023/07/03 04:49:43;;;;;;;16.00;10.57;;;18.90;71.10;;;;;;5030225;28;20955;-69
2023/07/03 04:52:13;;;;;;;15.23;10.80;;;18.90;72.20;;;;;;5026134;28;20449;-69
2023/07/03 04:54:41;;;;;;;16.70;12.00;;;18.80;71.20;;;;;;5022178;28;20901;-69
2023/07/03 04:57:09;;;;;;;13.73;10.60;;;18.80;72.80;;;;;;5024995;28;20453;-69
2023/07/03 04:59:38;;;;;;;16.97;10.97;;;18.80;72.20;;;;;;5022369;28;20564;-69
2023/07/03 05:02:06;;;;;;;17.10;10.43;;;18.90;71.90;;;;;;5027482;28;20441;-70
2023/07/03 05:04:35;;;;;;;14.50;10.20;;;18.90;72.00;;;;;;5022820;28;20541;-70
2023/07/03 05:07:04;;;;;;;16.53;10.60;;;18.90;71.90;;;;;;5021942;28;20445;-69
2023/07/03 05:09:32;;;;;;;13.97;9.77;;;19.00;71.50;;;;;;5024274;28;20546;-68
2023/07/03 05:12:00;;;;;;;13.40;10.37;;;19.10;71.30;;;;;;5026597;28;20454;-68
2023/07/03 05:14:28;;;;;;;17.93;11.03;;;19.10;71.60;;;;;;5022589;28;20503;-70
2023/07/03 05:16:56;;;;;;;14.43;10.30;;;19.10;71.10;;;;;;5026520;28;20444;-70
2023/07/03 05:19:24;;;;;;;19.50;12.00;;;19.10;71.40;;;;;;5025059;28;20476;-70
2023/07/03 05:21:53;;;;;;;13.00;10.30;;;19.20;71.60;;;;;;5029414;28;20437;-70
2023/07/03 05:24:21;;;;;;;18.33;11.17;;;19.40;71.70;;;;;;5028202;28;20587;-70
2023/07/03 05:26:49;;;;;;;13.90;10.47;;;19.40;71.60;;;;;;5028296;28;20869;-70
2023/07/03 05:29:17;;;;;;;17.53;11.50;;;19.50;71.70;;;;;;5028647;28;20856;-71
2023/07/03 05:31:46;;;;;;;14.07;9.77;;;19.50;71.00;;;;;;5027812;28;20840;-71
2023/07/03 05:34:14;;;;;;;13.80;9.93;;;19.60;70.60;;;;;;5027105;28;20484;-70
2023/07/03 05:36:42;;;;;;;15.90;10.37;;;19.60;70.70;;;;;;5028317;28;20445;-71
2023/07/03 05:39:13;;;;;;;11.63;9.73;;;19.80;70.30;;;;;;5028141;28;20848;-70
2023/07/03 05:41:41;;;;;;;17.17;11.80;;;19.80;69.80;;;;;;5024642;28;20465;-69
2023/07/03 05:44:09;;;;;;;12.83;9.47;;;19.90;69.30;;;;;;5024355;28;20514;-71
2023/07/03 05:46:37;;;;;;;12.43;10.13;;;20.00;69.10;;;;;;5025240;28;20942;-69
2023/07/03 05:49:05;;;;;;;14.50;10.70;;;20.00;68.20;;;;;;5026339;28;20456;-68
2023/07/03 05:51:33;;;;;;;15.30;10.43;;;19.90;68.40;;;;;;5027516;28;20441;-69
2023/07/03 05:54:01;;;;;;;15.43;10.50;;;19.90;68.60;;;;;;5027259;28;20998;-68
2023/07/03 05:56:30;;;;;;;13.57;9.50;;;20.00;69.00;;;;;;5027899;28;20448;-68
2023/07/03 05:58:58;;;;;;;13.67;10.33;;;20.10;68.90;;;;;;5028214;28;20472;-69
2023/07/03 06:01:28;;;;;;;19.40;10.60;;;20.20;69.40;;;;;;5027792;28;20441;-68
2023/07/03 06:03:56;;;;;;;15.37;10.60;;;20.20;69.20;;;;;;5026634;28;20465;-70
2023/07/03 06:06:24;;;;;;;21.03;10.03;;;20.30;68.20;;;;;;5027490;28;20544;-69
2023/07/03 06:08:52;;;;;;;16.03;10.27;;;20.30;66.90;;;;;;5027788;28;20445;-69
2023/07/03 06:11:20;;;;;;;16.10;10.10;;;20.40;67.60;;;;;;5027423;28;20524;-70
2023/07/03 06:13:49;;;;;;;15.97;10.20;;;20.50;68.50;;;;;;5027017;28;20522;-69
2023/07/03 06:16:17;;;;;;;14.17;9.87;;;20.60;66.30;;;;;;5028586;28;20455;-69
2023/07/03 06:18:45;;;;;;;13.43;9.90;;;20.70;66.50;;;;;;5031691;28;20544;-69
2023/07/03 06:21:13;;;;;;;14.20;10.80;;;20.70;66.00;;;;;;5033231;28;20492;-70
2023/07/03 06:23:41;;;;;;;12.43;8.63;;;20.80;66.50;;;;;;5031147;28;20475;-67
2023/07/03 06:26:10;;;;;;;13.33;9.60;;;20.70;65.50;;;;;;5033561;28;20502;-67
2023/07/03 06:28:38;;;;;;;15.60;10.00;;;20.80;66.40;;;;;;5033424;28;20448;-67
2023/07/03 06:31:07;;;;;;;14.10;9.37;;;20.80;65.80;;;;;;5032989;28;20447;-67
2023/07/03 06:33:35;;;;;;;15.33;9.50;;;20.90;67.20;;;;;;5032098;28;21057;-69
2023/07/03 06:36:06;;;;;;;16.00;9.47;;;21.10;66.00;;;;;;5032875;28;20977;-67
2023/07/03 06:38:34;;;;;;;14.37;8.90;;;21.30;65.60;;;;;;5033438;28;20510;-68
2023/07/03 06:41:02;;;;;;;14.07;9.63;;;21.50;65.30;;;;;;5032835;28;20582;-68
2023/07/03 06:43:30;;;;;;;13.60;10.43;;;21.50;64.20;;;;;;5031654;28;20468;-70
2023/07/03 06:45:59;;;;;;;12.73;8.67;;;21.70;63.80;;;;;;5032887;28;20468;-68
2023/07/03 06:48:28;;;;;;;14.70;8.80;;;21.70;63.50;;;;;;5033054;28;20459;-68
2023/07/03 06:51:03;;;;;;;14.43;9.53;;;21.60;62.90;;;;;;5032736;28;20524;-68
2023/07/03 06:53:32;;;;;;;13.37;9.70;;;21.70;61.70;;;;;;5031750;28;20471;-68
2023/07/03 06:56:01;;;;;;;15.10;9.20;;;21.40;61.00;;;;;;5032778;28;20441;-69
2023/07/03 06:58:30;;;;;;;14.97;9.13;;;21.30;62.70;;;;;;5032564;28;20448;-68
2023/07/03 07:00:58;;;;;;;15.40;8.17;;;21.30;62.20;;;;;;5032763;28;20512;-68
2023/07/03 07:03:28;;;;;;;14.10;8.60;;;21.40;61.30;;;;;;5031543;28;20448;-69
2023/07/03 07:05:56;;;;;;;14.00;10.40;;;21.50;60.90;;;;;;5032812;28;20496;-68
2023/07/03 07:08:26;;;;;;;13.10;8.77;;;21.50;62.00;;;;;;5032394;28;20520;-68
2023/07/03 07:10:54;;;;;;;16.33;8.90;;;21.40;61.60;;;;;;5032192;28;20636;-68
2023/07/03 07:13:22;;;;;;;14.00;9.23;;;21.10;62.20;;;;;;5030994;28;20484;-68
2023/07/03 07:15:50;;;;;;;14.07;8.73;;;20.90;62.80;;;;;;5032485;28;20963;-68
2023/07/03 07:18:18;;;;;;;16.10;9.37;;;20.90;63.40;;;;;;5032132;28;20453;-69
2023/07/03 07:20:47;;;;;;;17.50;10.00;;;20.80;62.70;;;;;;5032345;28;20472;-69
2023/07/03 07:23:15;;;;;;;16.80;10.27;;;20.80;64.00;;;;;;5030950;28;20555;-69
2023/07/03 07:25:43;;;;;;;14.37;10.57;;;20.80;64.30;;;;;;5032457;28;20543;-69
2023/07/03 07:28:11;;;;;;;16.03;9.97;;;20.80;64.90;;;;;;5031725;28;21034;-69
2023/07/03 07:30:39;;;;;;;16.80;9.97;;;20.90;65.60;;;;;;5032190;28;20433;-70
2023/07/03 07:33:07;;;;;;;15.93;10.00;;;20.90;66.70;;;;;;5030834;28;20480;-69
2023/07/03 07:35:36;;;;;;;15.17;9.53;;;20.80;66.20;;;;;;5031923;28;20878;-69
2023/07/03 07:38:05;;;;;;;19.73;9.93;;;20.50;67.50;;;;;;5031959;28;20503;-70
2023/07/03 07:40:33;;;;;;;16.70;10.50;;;20.50;68.80;;;;;;5031835;28;20491;-69
2023/07/03 07:43:01;;;;;;;13.93;9.40;;;20.50;68.50;;;;;;5030867;28;20437;-70
2023/07/03 07:45:31;;;;;;;15.70;9.73;;;20.70;68.90;;;;;;5031909;28;20526;-70
2023/07/03 07:47:59;;;;;;;13.17;8.80;;;20.80;67.90;;;;;;5031846;28;21159;-70
2023/07/03 07:50:29;;;;;;;15.47;10.13;;;20.90;68.30;;;;;;5032247;28;20443;-69
2023/07/03 07:52:59;;;;;;;15.60;10.00;;;21.00;67.60;;;;;;5031605;28;20429;-70
2023/07/03 07:55:29;;;;;;;18.00;11.70;;;20.80;68.00;;;;;;5031874;28;20449;-69
2023/07/03 07:57:57;;;;;;;15.63;10.20;;;20.80;67.90;;;;;;5031904;28;20436;-70
2023/07/03 08:00:25;;;;;;;14.53;9.70;;;20.80;67.90;;;;;;5032016;28;20504;-70
2023/07/03 08:02:53;;;;;;;17.05;11.18;;;20.70;68.40;;;;;;5030252;28;20507;-69
2023/07/03 08:05:21;;;;;;;18.70;10.83;;;20.80;69.10;;;;;;5032066;28;20221;-70
2023/07/03 08:07:49;;;;;;;14.27;9.57;;;20.90;68.90;;;;;;5031960;28;20441;-69
2023/07/03 08:10:17;;;;;;;15.80;9.90;;;20.80;68.70;;;;;;5031898;28;20536;-70
2023/07/03 08:12:47;;;;;;;15.77;9.30;;;20.80;69.70;;;;;;5031465;28;20495;-70
2023/07/03 08:15:16;;;;;;;20.93;9.77;;;21.10;69.30;;;;;;5031784;28;20555;-69
2023/07/03 08:17:44;;;;;;;16.40;11.30;;;21.50;67.90;;;;;;5031870;28;20464;-70
2023/07/03 08:20:13;;;;;;;16.27;10.90;;;21.70;67.10;;;;;;5031642;28;20440;-69
2023/07/03 08:22:41;;;;;;;14.67;10.10;;;21.80;66.60;;;;;;5031174;28;20437;-70
2023/07/03 08:25:10;;;;;;;19.50;10.83;;;21.70;67.20;;;;;;5031193;28;20886;-70
2023/07/03 08:27:38;;;;;;;14.27;10.50;;;21.60;67.20;;;;;;5031470;28;20479;-70
2023/07/03 08:30:09;;;;;;;15.40;10.20;;;21.30;67.80;;;;;;5031026;28;20849;-70
2023/07/03 08:32:37;;;;;;;15.57;10.53;;;20.90;68.70;;;;;;5031187;28;20723;-69
2023/07/03 08:35:06;;;;;;;15.70;9.83;;;20.80;69.00;;;;;;5030863;28;20508;-68
2023/07/03 08:37:36;;;;;;;13.03;9.73;;;20.70;69.10;;;;;;5031162;28;20425;-69
2023/07/03 08:40:07;;;;;;;16.43;9.40;;;20.90;68.80;;;;;;5030099;28;20857;-69
2023/07/03 08:42:39;;;;;;;12.43;9.20;;;21.40;66.50;;;;;;5030604;28;21256;-69
2023/07/03 08:45:13;;;;;;;17.90;9.50;;;21.40;65.80;;;;;;5030852;28;20512;-69
2023/07/03 08:47:42;;;;;;;15.50;9.07;;;21.30;65.20;;;;;;5031026;28;20536;-68
2023/07/03 08:50:16;;;;;;;17.57;8.87;;;21.30;66.20;;;;;;5030631;28;20896;-69
2023/07/03 08:53:03;;;;;;;13.77;9.50;;;21.60;66.10;;;;;;5030545;28;20441;-69
2023/07/03 08:55:35;;;;;;;14.40;9.13;;;21.60;64.80;;;;;;5027510;28;20476;-69
2023/07/03 08:58:03;;;;;;;16.93;9.73;;;21.50;64.60;;;;;;5024771;28;20437;-69
2023/07/03 09:00:38;;;;;;;13.80;8.53;;;21.40;65.10;;;;;;5028600;28;20957;-71
2023/07/03 09:03:15;;;;;;;13.37;8.67;;;21.20;64.60;;;;;;5028016;28;20439;-69
2023/07/03 09:05:49;;;;;;;14.87;9.17;;;21.30;65.10;;;;;;5028343;28;20437;-70
2023/07/03 09:08:24;;;;;;;15.17;8.80;;;21.30;64.50;;;;;;5027881;28;20491;-71
2023/07/03 09:10:52;;;;;;;15.33;10.20;;;21.30;63.90;;;;;;5028513;28;20451;-70
2023/07/03 09:13:26;;;;;;;13.37;8.40;;;21.40;64.30;;;;;;5027935;28;20449;-72
2023/07/03 09:16:03;;;;;;;13.63;8.60;;;21.70;63.20;;;;;;5027940;28;20437;-71
2023/07/03 09:18:37;;;;;;;16.93;8.23;;;21.60;62.50;;;;;;5028339;28;20449;-71
2023/07/03 09:21:05;;;;;;;15.03;8.83;;;21.80;62.50;;;;;;5028704;28;20566;-71
2023/07/03 09:23:39;;;;;;;14.50;7.83;;;21.90;61.10;;;;;;5027443;28;20468;-71
2023/07/03 09:26:16;;;;;;;12.40;8.30;;;21.60;60.60;;;;;;5027869;28;20810;-70
2023/07/03 09:28:45;;;;;;;8.70;7.60;;;21.60;61.90;;;;;;5028968;28;20491;-71
2023/07/03 09:31:15;;;;;;;14.00;7.50;;;21.70;60.70;;;;;;5029352;28;20475;-70
2023/07/03 09:33:43;;;;;;;13.73;8.10;;;22.00;60.70;;;;;;5041829;28;20460;-70
2023/07/03 09:36:23;;;;;;;14.70;8.43;;;22.50;59.40;;;;;;5049537;28;20440;-72
2023/07/03 09:38:51;;;;;;;11.23;7.53;;;23.10;58.90;;;;;;5043908;28;20591;-71
2023/07/03 09:41:30;;;;;;;14.40;6.93;;;23.10;58.20;;;;;;5023768;28;20594;-69
2023/07/03 09:43:58;;;;;;;14.73;8.03;;;22.50;57.60;;;;;;5028300;28;20841;-70
2023/07/03 09:46:30;;;;;;;9.67;7.20;;;22.00;59.10;;;;;;5029045;28;20503;-70
2023/07/03 09:49:01;;;;;;;12.27;7.40;;;21.90;58.60;;;;;;5029071;28;20476;-70
2023/07/03 09:51:31;;;;;;;13.27;7.57;;;22.10;58.50;;;;;;5029009;28;20438;-71
2023/07/03 09:54:05;;;;;;;12.60;7.00;;;22.30;57.80;;;;;;5028547;28;20469;-70
2023/07/03 09:56:35;;;;;;;13.70;8.00;;;22.60;58.40;;;;;;5028687;28;20459;-70
2023/07/03 09:59:05;;;;;;;9.90;8.20;;;23.20;56.90;;;;;;5029044;28;20477;-70
2023/07/03 10:01:39;;;;;;;13.20;7.57;;;23.30;54.40;;;;;;5028252;28;20562;-70
2023/07/03 10:04:31;;;;;;;10.10;7.27;;;23.80;54.30;;;;;;5005771;28;20541;-70
2023/07/03 10:07:07;;;;;;;10.73;7.13;;;24.70;52.90;;;;;;4909711;29;20470;-69
2023/07/03 10:09:41;;;;;;;11.00;6.67;;;25.10;49.40;;;;;;4910481;29;20597;-71
2023/07/03 10:12:24;;;;;;;10.80;6.13;;;25.00;49.30;;;;;;4911440;29;20991;-70
2023/07/03 10:14:57;;;;;;;8.83;5.27;;;24.80;49.50;;;;;;4912785;29;20489;-69
2023/07/03 10:17:31;;;;;;;9.93;7.20;;;24.80;50.60;;;;;;4917438;29;20439;-70
2023/07/03 10:20:03;;;;;;;9.50;5.90;;;25.50;49.00;;;;;;4916141;29;20454;-69
2023/07/03 10:22:32;;;;;;;10.07;5.57;;;25.30;47.40;;;;;;4934916;29;20512;-70
2023/07/03 10:25:04;;;;;;;9.47;6.27;;;24.70;48.10;;;;;;4989064;28;20480;-69
2023/07/03 10:27:35;;;;;;;8.13;5.40;;;23.80;48.90;;;;;;5038169;28;20437;-69
2023/07/03 10:30:11;;;;;;;7.93;4.67;;;23.50;50.70;;;;;;5037887;28;20471;-70
2023/07/03 10:32:41;;;;;;;7.23;5.80;;;23.40;51.00;;;;;;5038267;28;20467;-70
2023/07/03 10:35:14;;;;;;;8.17;5.00;;;23.80;50.80;;;;;;5036466;28;20476;-71
2023/07/03 10:37:51;;;;;;;10.40;5.50;;;24.10;50.40;;;;;;5027820;28;20465;-69
2023/07/03 10:40:27;;;;;;;8.37;5.53;;;23.90;50.10;;;;;;5030138;28;20535;-68
2023/07/03 10:42:58;;;;;;;6.27;3.93;;;23.60;50.60;;;;;;5032660;28;20537;-69
2023/07/03 10:45:27;;;;;;;5.23;3.77;;;23.50;50.80;;;;;;5032806;28;20504;-71
2023/07/03 10:48:01;;;;;;;6.03;4.30;;;23.40;51.00;;;;;;5033149;28;20824;-71
2023/07/03 10:50:34;;;;;;;8.03;4.40;;;23.20;51.50;;;;;;5032885;28;20467;-70
2023/07/03 10:53:12;;;;;;;11.00;4.53;;;22.90;52.10;;;;;;5033208;28;20535;-71
2023/07/03 10:55:46;;;;;;;7.60;4.90;;;22.90;52.20;;;;;;5029782;28;20448;-71
2023/07/03 10:58:22;;;;;;;10.47;5.23;;;23.00;53.70;;;;;;5029743;28;20421;-71
2023/07/03 11:00:59;;;;;;;8.83;5.20;;;22.90;54.30;;;;;;5029448;28;21021;-71
2023/07/03 11:03:35;;;;;;;9.23;5.60;;;23.10;54.40;;;;;;5030248;28;20566;-71
2023/07/03 11:06:07;;;;;;;8.60;4.80;;;23.90;52.70;;;;;;5032839;28;20531;-71
2023/07/03 11:08:43;;;;;;;9.83;5.17;;;23.90;53.40;;;;;;5032828;28;20456;-71
2023/07/03 11:11:19;;;;;;;8.70;5.00;;;24.20;53.80;;;;;;5032629;28;20487;-71
2023/07/03 11:13:53;;;;;;;8.80;4.90;;;25.30;51.90;;;;;;5032896;28;20460;-70
2023/07/03 11:16:25;;;;;;;5.70;4.40;;;26.20;50.10;;;;;;5033268;28;20970;-71
2023/07/03 11:19:13;;;;;;;8.83;4.57;;;26.30;48.00;;;;;;5032559;28;20456;-71
2023/07/03 11:21:53;;;;;;;8.30;5.47;;;26.70;48.30;;;;;;5009927;28;20442;-72
2023/07/03 11:24:30;;;;;;;7.90;5.00;;;26.50;47.40;;;;;;4912964;29;20561;-71
2023/07/03 11:27:04;;;;;;;10.20;5.43;;;26.20;48.90;;;;;;4913419;29;20510;-72
2023/07/03 11:29:36;;;;;;;8.70;5.13;;;26.40;49.20;;;;;;4856554;29;20513;-70
2023/07/03 11:32:07;;;;;;;7.63;4.93;;;26.30;47.90;;;;;;4856849;29;20513;-71
2023/07/03 11:34:37;;;;;;;10.47;4.90;;;25.60;48.80;;;;;;4856703;29;20944;-70
2023/07/03 11:37:33;;;;;;;9.30;4.97;;;25.20;50.10;;;;;;4857262;29;21269;-70
2023/07/03 11:40:33;;;;;;;8.30;5.40;;;25.40;51.40;;;;;;4877302;29;20447;-71
2023/07/03 11:43:29;;;;;;;7.97;5.73;;;26.10;49.50;;;;;;4944260;28;20533;-71
2023/07/03 11:46:23;;;;;;;8.17;5.47;;;26.90;48.30;;;;;;4970704;28;20858;-71
2023/07/03 11:48:57;;;;;;;13.40;6.37;;;26.80;47.80;;;;;;5015906;28;20457;-70
2023/07/03 11:51:35;;;;;;;11.40;5.87;;;25.80;49.50;;;;;;5031986;28;20441;-70
2023/07/03 11:54:16;;;;;;;11.70;6.00;;;25.00;50.80;;;;;;5031259;28;20453;-71
2023/07/03 11:56:50;;;;;;;12.70;5.93;;;24.20;53.10;;;;;;5031821;28;20437;-70
2023/07/03 11:59:37;;;;;;;9.50;5.77;;;23.60;54.00;;;;;;5031632;28;20468;-72
2023/07/03 12:02:45;;;;;;;13.20;5.60;;;24.40;54.80;;;;;;5031844;28;20441;-72
2023/07/03 12:05:53;;;;;;;12.07;4.67;;;25.10;52.70;;;;;;5031378;28;20853;-72
2023/07/03 12:08:42;;;;;;;8.53;4.87;;;24.90;52.00;;;;;;5015525;28;20504;-72
2023/07/03 12:11:12;;;;;;;9.43;4.87;;;24.70;52.80;;;;;;5031430;28;20444;-72
2023/07/03 12:13:51;;;;;;;11.40;5.60;;;25.00;53.50;;;;;;5031100;28;20544;-71
2023/07/03 12:16:23;;;;;;;8.07;5.00;;;25.50;51.60;;;;;;5031508;28;20521;-72
2023/07/03 12:19:00;;;;;;;8.77;5.20;;;25.90;51.90;;;;;;5031628;28;20437;-71
2023/07/03 12:21:35;;;;;;;7.30;5.03;;;26.30;51.20;;;;;;5031170;28;20487;-72
2023/07/03 12:24:18;;;;;;;11.70;5.23;;;27.00;49.60;;;;;;5030766;28;20480;-71
2023/07/03 12:27:00;;;;;;;9.50;5.63;;;27.10;49.00;;;;;;5031289;28;20507;-71
2023/07/03 12:29:28;;;;;;;8.50;5.23;;;26.90;48.00;;;;;;5030630;28;20805;-72
2023/07/03 12:32:05;;;;;;;8.30;4.73;;;26.50;48.30;;;;;;5030953;28;20441;-70
2023/07/03 12:34:35;;;;;;;8.17;4.70;;;26.00;49.30;;;;;;5031080;28;20456;-70
2023/07/03 12:37:05;;;;;;;6.53;3.80;;;25.30;50.40;;;;;;5030867;28;20449;-70
2023/07/03 12:39:36;;;;;;;7.53;4.23;;;25.80;50.10;;;;;;5031326;28;20441;-71
2023/07/03 12:42:09;;;;;;;7.50;4.23;;;26.20;48.80;;;;;;5030940;28;20460;-71
2023/07/03 12:44:38;;;;;;;6.43;4.00;;;26.60;48.70;;;;;;5030484;28;20512;-70
2023/07/03 12:47:12;;;;;;;8.67;4.63;;;27.50;46.00;;;;;;5030746;28;20499;-70
2023/07/03 12:49:55;;;;;;;4.93;3.73;;;27.60;45.50;;;;;;5030656;28;20549;-72
2023/07/03 12:52:24;;;;;;;6.77;4.23;;;27.50;46.80;;;;;;5030466;28;20545;-71